Jenneville, Vermont
Current Conditions -  °F | °C
As of 1:54 AM on Saturday 25 Oct 2014 (Local Time) from KVSF Reporting Station
Clear Clear  
Wind Chill: 36°   Ceiling: Unl
Heat Index: 40°   Visibility: 10mi
Dew Point: 39°   Wind: 6mph
Humidity: 97%   Direction: 90°E
Pressure: 29.79"   Gusts: NA
Location:  43.4897°N, 72.4482°W
Report Text: KVSF 250554Z AUTO 09005KT 10SM CLR 04/04 A2979 RMK AO2 SLP091 T00440039 10089 20039 58004
Loading
Personal Weather Stations






























Interactive Weather Map
Tropical Storm Tracking
New forecast layout! Learn more

10-Day Weather Forecast

Advertisements
Track Severe Weather on mobile